createdAt,value
2022-11-24T00:01:28.312Z,6.50
2022-11-24T00:03:57.655Z,6.30
2022-11-24T00:06:25.453Z,6.97
2022-11-24T00:08:52.899Z,6.78
2022-11-24T00:11:23.407Z,7.03
2022-11-24T00:13:50.586Z,6.97
2022-11-24T00:16:32.098Z,6.60
2022-11-24T00:19:00.967Z,6.57
2022-11-24T00:21:30.796Z,6.60
2022-11-24T00:23:58.118Z,6.80
2022-11-24T00:26:37.374Z,6.45
2022-11-24T00:29:07.745Z,6.75
2022-11-24T00:31:39.743Z,7.05
2022-11-24T00:34:14.486Z,7.07
2022-11-24T00:36:42.421Z,6.80
2022-11-24T00:39:14.720Z,6.45
2022-11-24T00:41:42.573Z,6.47
2022-11-24T00:44:09.428Z,6.72
2022-11-24T00:46:36.521Z,6.62
2022-11-24T00:49:04.260Z,6.73
2022-11-24T00:51:31.508Z,6.85
2022-11-24T00:53:59.552Z,7.07
2022-11-24T00:56:27.614Z,6.93
2022-11-24T00:58:54.930Z,6.68
2022-11-24T01:01:24.822Z,6.53
2022-11-24T01:03:52.043Z,6.35
2022-11-24T01:06:21.901Z,6.28
2022-11-24T01:08:48.939Z,5.87
2022-11-24T01:12:00.236Z,5.93
2022-11-24T01:14:28.747Z,6.07
2022-11-24T01:16:55.717Z,5.87
2022-11-24T01:19:23.186Z,6.15
2022-11-24T01:21:50.351Z,6.43
2022-11-24T01:24:17.587Z,6.50
2022-11-24T01:26:45.115Z,6.83
2022-11-24T01:29:12.454Z,6.37
2022-11-24T01:31:39.521Z,6.60
2022-11-24T01:34:06.545Z,6.95
2022-11-24T01:36:33.903Z,6.85
2022-11-24T01:39:01.406Z,7.57
2022-11-24T01:41:28.344Z,7.68
2022-11-24T01:43:56.820Z,7.00
2022-11-24T01:46:43.692Z,8.40
2022-11-24T01:49:18.777Z,7.72
2022-11-24T01:51:52.494Z,8.20
2022-11-24T01:54:24.980Z,7.18
2022-11-24T01:57:20.432Z,7.62
2022-11-24T01:59:51.431Z,8.15
2022-11-24T02:02:19.582Z,7.75
2022-11-24T02:04:47.180Z,7.53
2022-11-24T02:07:14.704Z,7.45
2022-11-24T02:10:00.897Z,7.20
2022-11-24T02:12:28.854Z,7.57
2022-11-24T02:14:56.236Z,7.40
2022-11-24T02:17:23.216Z,7.17
2022-11-24T02:19:53.772Z,7.37
2022-11-24T02:22:43.970Z,7.57
2022-11-24T02:25:39.615Z,7.22
2022-11-24T02:28:10.762Z,7.07
2022-11-24T02:30:37.939Z,6.93
2022-11-24T02:33:04.839Z,6.57
2022-11-24T02:35:32.054Z,5.90
2022-11-24T02:37:58.886Z,5.50
2022-11-24T02:40:30.243Z,6.25
2022-11-24T02:43:11.018Z,5.67
2022-11-24T02:45:37.898Z,6.50
2022-11-24T02:48:05.271Z,6.40
2022-11-24T02:50:32.312Z,6.68
2022-11-24T02:52:59.217Z,6.57
2022-11-24T02:55:26.450Z,7.80
2022-11-24T02:57:53.327Z,7.62
2022-11-24T03:00:20.790Z,7.62
2022-11-24T03:02:48.293Z,7.78
2022-11-24T03:05:15.420Z,7.72
2022-11-24T03:07:42.572Z,8.83
2022-11-24T03:10:09.724Z,8.18
2022-11-24T03:12:37.653Z,8.68
2022-11-24T03:15:06.120Z,9.60
2022-11-24T03:17:32.930Z,10.38
2022-11-24T03:20:04.886Z,10.30
2022-11-24T03:22:32.315Z,11.30
2022-11-24T03:24:59.372Z,12.40
2022-11-24T03:27:26.250Z,12.20
2022-11-24T03:29:53.055Z,11.95
2022-11-24T03:32:19.945Z,13.33
2022-11-24T03:34:47.381Z,13.50
2022-11-24T03:37:14.569Z,13.10
2022-11-24T03:39:43.133Z,12.65
2022-11-24T03:42:10.001Z,14.55
2022-11-24T03:44:36.933Z,14.90
2022-11-24T03:47:03.934Z,15.30
2022-11-24T03:49:30.867Z,14.10
2022-11-24T03:51:57.750Z,14.10
2022-11-24T03:54:24.638Z,14.80
2022-11-24T03:56:53.068Z,14.30
2022-11-24T03:59:19.906Z,13.85
2022-11-24T04:01:46.799Z,14.50
2022-11-24T04:04:13.948Z,14.35
2022-11-24T04:06:41.068Z,13.82
2022-11-24T04:09:08.141Z,14.13
2022-11-24T04:11:53.984Z,13.65
2022-11-24T04:14:21.089Z,14.07
2022-11-24T04:16:48.192Z,14.13
2022-11-24T04:19:15.053Z,14.15
2022-11-24T04:21:42.059Z,13.83
2022-11-24T04:24:08.951Z,13.88
2022-11-24T04:26:35.742Z,14.52
2022-11-24T04:29:02.566Z,13.88
2022-11-24T04:31:29.447Z,14.18
2022-11-24T04:33:56.394Z,15.00
2022-11-24T04:36:23.271Z,14.15
2022-11-24T04:39:24.932Z,14.65
2022-11-24T04:41:39.896Z,14.45
2022-11-24T04:44:06.659Z,14.75
2022-11-24T04:46:33.559Z,14.77
2022-11-24T04:49:00.456Z,15.60
2022-11-24T04:51:27.364Z,14.55
2022-11-24T04:53:54.194Z,15.02
2022-11-24T04:56:21.022Z,15.23
2022-11-24T04:58:49.110Z,16.33
2022-11-24T05:01:16.054Z,17.00
2022-11-24T05:03:42.991Z,16.37
2022-11-24T05:06:09.890Z,16.25
2022-11-24T05:08:36.964Z,15.85
2022-11-24T05:11:07.438Z,16.07
2022-11-24T05:13:34.243Z,15.30
2022-11-24T05:16:01.873Z,15.88
2022-11-24T05:18:29.004Z,16.08
2022-11-24T05:20:56.179Z,14.70
2022-11-24T05:23:22.989Z,17.23
2022-11-24T05:25:50.616Z,16.35
2022-11-24T05:28:17.960Z,14.80
2022-11-24T05:30:45.322Z,16.87
2022-11-24T05:33:19.000Z,16.27
2022-11-24T05:35:48.112Z,16.13
2022-11-24T05:38:16.071Z,15.10
2022-11-24T05:40:43.737Z,15.15
2022-11-24T05:43:12.160Z,14.90
2022-11-24T05:45:39.379Z,14.98
2022-11-24T05:48:08.107Z,15.87
2022-11-24T05:50:35.776Z,14.68
2022-11-24T05:53:10.229Z,14.32
2022-11-24T05:55:37.755Z,14.48
2022-11-24T05:58:07.171Z,15.50
2022-11-24T06:00:35.388Z,15.47
2022-11-24T06:03:02.338Z,14.13
2022-11-24T06:05:30.017Z,15.18
2022-11-24T06:07:58.558Z,15.35
2022-11-24T06:10:25.386Z,14.70
2022-11-24T06:12:52.549Z,14.87
2022-11-24T06:15:19.399Z,14.43
2022-11-24T06:17:56.201Z,14.15
2022-11-24T06:20:28.335Z,15.50
2022-11-24T06:22:59.075Z,25.15
2022-11-24T06:25:26.387Z,16.67
2022-11-24T06:27:53.217Z,15.23
2022-11-24T06:30:20.494Z,15.45
2022-11-24T06:32:49.654Z,14.85
2022-11-24T06:35:17.362Z,14.73
2022-11-24T06:37:44.252Z,14.83
2022-11-24T06:40:13.279Z,13.98
2022-11-24T06:42:40.160Z,14.05
2022-11-24T06:45:09.278Z,12.90
2022-11-24T06:47:37.040Z,13.48
2022-11-24T06:50:04.527Z,11.03
2022-11-24T06:52:31.509Z,10.48
2022-11-24T06:54:58.412Z,10.63
2022-11-24T06:57:25.222Z,17.27
2022-11-24T06:59:52.181Z,13.73
2022-11-24T07:02:18.968Z,10.13
2022-11-24T07:04:45.856Z,10.25
2022-11-24T07:07:12.829Z,9.30
2022-11-24T07:09:39.839Z,8.05
2022-11-24T07:12:07.685Z,7.65
2022-11-24T07:14:34.742Z,7.90
2022-11-24T07:17:02.716Z,8.43
2022-11-24T07:19:29.539Z,8.25
2022-11-24T07:21:56.541Z,7.87
2022-11-24T07:24:23.513Z,7.70
2022-11-24T07:26:50.293Z,7.50
2022-11-24T07:29:17.145Z,7.60
2022-11-24T07:31:46.037Z,9.20
2022-11-24T07:34:14.886Z,9.77
2022-11-24T07:36:42.720Z,7.90
2022-11-24T07:39:09.818Z,9.53
2022-11-24T07:41:36.619Z,9.27
2022-11-24T07:44:03.631Z,8.52
2022-11-24T07:46:30.408Z,9.20
2022-11-24T07:48:57.198Z,9.05
2022-11-24T07:51:24.218Z,8.97
2022-11-24T07:53:51.073Z,8.25
2022-11-24T07:56:17.860Z,8.57
2022-11-24T07:58:49.811Z,9.15
2022-11-24T08:01:20.231Z,8.40
2022-11-24T08:03:47.625Z,7.80
2022-11-24T08:06:25.077Z,8.25
2022-11-24T08:08:53.366Z,7.87
2022-11-24T08:11:20.224Z,8.63
2022-11-24T08:13:47.172Z,8.65
2022-11-24T08:16:16.969Z,7.30
2022-11-24T08:18:44.761Z,8.43
2022-11-24T08:21:16.595Z,11.20
2022-11-24T08:23:43.532Z,7.75
2022-11-24T08:26:17.906Z,8.80
2022-11-24T08:28:48.013Z,9.47
2022-11-24T08:31:18.734Z,8.43
2022-11-24T08:33:46.383Z,9.20
2022-11-24T08:36:16.953Z,9.38
2022-11-24T08:38:44.864Z,8.48
2022-11-24T08:41:14.297Z,8.87
2022-11-24T08:43:41.888Z,8.85
2022-11-24T08:46:12.372Z,8.30
2022-11-24T08:48:40.185Z,8.05
2022-11-24T08:51:12.489Z,10.57
2022-11-24T08:53:40.013Z,9.50
2022-11-24T08:56:08.015Z,10.82
2022-11-24T08:58:35.684Z,10.10
2022-11-24T09:01:10.156Z,10.55
2022-11-24T09:03:44.778Z,9.30
2022-11-24T09:06:13.542Z,8.83
2022-11-24T09:08:40.454Z,8.85
2022-11-24T09:11:12.380Z,8.35
2022-11-24T09:13:40.322Z,9.07
2022-11-24T09:16:21.616Z,10.57
2022-11-24T09:18:54.611Z,10.70
2022-11-24T09:21:22.361Z,9.52
2022-11-24T09:23:50.750Z,10.75
2022-11-24T09:26:20.728Z,10.68
2022-11-24T09:28:48.230Z,10.90
2022-11-24T09:31:17.113Z,9.93
2022-11-24T09:33:45.093Z,11.32
2022-11-24T09:36:12.361Z,10.88
2022-11-24T09:38:39.252Z,10.93
2022-11-24T09:41:16.580Z,11.02
2022-11-24T09:44:07.414Z,10.23
2022-11-24T09:46:48.613Z,10.40
2022-11-24T09:49:22.209Z,10.00
2022-11-24T09:51:52.755Z,11.15
2022-11-24T09:54:25.327Z,10.45
2022-11-24T09:56:52.461Z,11.53
2022-11-24T09:59:26.245Z,11.40
2022-11-24T10:01:54.407Z,11.12
2022-11-24T10:04:31.963Z,11.27
2022-11-24T10:07:20.805Z,11.88
2022-11-24T10:10:06.583Z,11.30
2022-11-24T10:12:36.702Z,10.05
2022-11-24T10:15:12.302Z,10.40
2022-11-24T10:18:17.429Z,10.70
2022-11-24T10:20:56.633Z,9.68
2022-11-24T10:23:50.115Z,10.53
2022-11-24T10:26:25.426Z,9.55
2022-11-24T10:28:55.783Z,9.90
2022-11-24T10:31:38.290Z,9.48
2022-11-24T10:34:17.730Z,8.57
2022-11-24T10:37:03.366Z,9.90
2022-11-24T10:39:57.132Z,9.13
2022-11-24T10:42:33.432Z,8.85
2022-11-24T10:45:02.970Z,8.38
2022-11-24T10:47:30.822Z,8.40
2022-11-24T10:50:19.433Z,9.10
2022-11-24T10:52:55.008Z,10.00
2022-11-24T10:55:21.852Z,9.02
2022-11-24T10:57:48.935Z,9.82
2022-11-24T11:00:18.685Z,10.10
2022-11-24T11:02:47.441Z,10.00
2022-11-24T11:05:32.416Z,9.95
2022-11-24T11:08:14.420Z,8.82
2022-11-24T11:10:43.163Z,9.65
2022-11-24T11:13:25.137Z,10.80
2022-11-24T11:15:52.394Z,8.27
2022-11-24T11:18:21.174Z,11.45
2022-11-24T11:20:56.495Z,11.38
2022-11-24T11:23:29.466Z,10.55
2022-11-24T11:26:33.291Z,9.55
2022-11-24T11:35:03.151Z,9.68
2022-11-24T11:37:32.982Z,9.68
2022-11-24T11:40:00.553Z,9.18
2022-11-24T11:43:01.774Z,9.27
2022-11-24T11:45:38.451Z,9.60
2022-11-24T11:48:23.691Z,9.40
2022-11-24T11:54:22.983Z,9.52
2022-11-24T11:57:04.303Z,8.30
2022-11-24T11:59:48.783Z,8.38
2022-11-24T12:02:54.073Z,8.95
2022-11-24T12:05:31.723Z,8.93
2022-11-24T12:09:19.458Z,9.07
2022-11-24T12:11:45.072Z,8.90
2022-11-24T12:14:21.052Z,9.10
2022-11-24T12:17:07.199Z,8.45
2022-11-24T12:19:46.220Z,8.52
2022-11-24T12:22:40.709Z,8.38
2022-11-24T12:25:22.913Z,7.97
2022-11-24T12:27:55.335Z,8.80
2022-11-24T12:30:22.824Z,9.50
2022-11-24T12:33:24.075Z,8.57
2022-11-24T12:36:04.476Z,9.35
2022-11-24T12:38:53.870Z,9.13
2022-11-24T12:41:45.315Z,8.88
2022-11-24T12:44:44.297Z,9.82
2022-11-24T12:47:32.387Z,8.50
2022-11-24T12:50:11.402Z,8.57
2022-11-24T12:52:44.252Z,8.97
2022-11-24T12:55:22.767Z,8.30
2022-11-24T12:58:17.890Z,9.23
2022-11-24T13:01:03.285Z,8.50
2022-11-24T13:03:45.838Z,8.52
2022-11-24T13:06:35.833Z,8.53
2022-11-24T13:09:13.338Z,8.48
2022-11-24T13:11:49.039Z,8.73
2022-11-24T13:14:20.463Z,8.88
2022-11-24T13:17:13.327Z,8.18
2022-11-24T13:19:38.055Z,9.13
2022-11-24T13:22:07.690Z,9.80
2022-11-24T13:24:39.637Z,9.18
2022-11-24T13:27:15.509Z,8.05
2022-11-24T13:29:46.585Z,8.07
2022-11-24T13:32:14.489Z,7.63
2022-11-24T13:34:45.491Z,8.27
2022-11-24T13:37:33.869Z,8.63
2022-11-24T13:40:11.606Z,7.90
2022-11-24T13:42:57.647Z,8.65
2022-11-24T13:45:40.365Z,8.40
2022-11-24T13:48:33.761Z,8.23
2022-11-24T13:51:01.559Z,8.15
2022-11-24T13:53:36.225Z,8.52
2022-11-24T13:56:03.041Z,8.30
2022-11-24T13:59:00.264Z,8.03
2022-11-24T14:01:30.536Z,8.13
2022-11-24T14:04:29.902Z,8.57
2022-11-24T14:06:52.140Z,8.43
2022-11-24T14:09:24.118Z,8.27
2022-11-24T14:12:12.713Z,8.40
2022-11-24T14:14:40.538Z,8.07
2022-11-24T14:17:19.779Z,8.55
2022-11-24T14:19:49.289Z,7.90
2022-11-24T14:22:34.689Z,8.43
2022-11-24T14:25:03.029Z,8.67
2022-11-24T14:27:34.587Z,8.18
2022-11-24T14:30:15.523Z,8.00
2022-11-24T14:33:00.050Z,8.32
2022-11-24T14:35:29.945Z,8.05
2022-11-24T14:37:57.487Z,8.23
2022-11-24T14:40:41.169Z,7.90
2022-11-24T14:43:27.429Z,7.93
2022-11-24T14:45:57.730Z,7.57
2022-11-24T14:48:35.810Z,7.72
2022-11-24T14:51:18.112Z,7.00
2022-11-24T14:53:49.006Z,7.32
2022-11-24T14:56:26.931Z,7.53
2022-11-24T14:58:55.529Z,7.72
2022-11-24T15:01:28.980Z,8.68
2022-11-24T15:07:31.641Z,8.02
2022-11-24T15:10:00.794Z,8.60
2022-11-24T15:12:34.263Z,8.30
2022-11-24T15:15:13.248Z,9.50
2022-11-24T15:17:49.354Z,8.37
2022-11-24T15:20:41.388Z,7.60
2022-11-24T15:23:24.933Z,8.00
2022-11-24T15:26:17.604Z,6.80
2022-11-24T15:28:46.898Z,9.52
2022-11-24T15:31:14.742Z,9.00
2022-11-24T15:33:42.343Z,8.68
2022-11-24T15:36:09.273Z,8.30
2022-11-24T15:38:36.039Z,8.50
2022-11-24T15:41:16.618Z,8.05
2022-11-24T15:43:44.715Z,7.80
2022-11-24T15:46:11.656Z,8.45
2022-11-24T15:48:39.837Z,8.52
2022-11-24T15:51:11.331Z,8.10
2022-11-24T15:53:40.962Z,7.80
2022-11-24T15:56:23.517Z,7.43
2022-11-24T15:58:50.370Z,7.90
2022-11-24T16:01:17.563Z,8.43
2022-11-24T16:03:47.600Z,8.38
2022-11-24T16:06:24.596Z,7.80
2022-11-24T16:08:52.554Z,7.63
2022-11-24T16:11:19.339Z,7.22
2022-11-24T16:13:51.811Z,7.22
2022-11-24T16:16:20.550Z,8.00
2022-11-24T16:18:47.771Z,7.00
2022-11-24T16:21:14.740Z,7.20
2022-11-24T16:23:41.681Z,7.37
2022-11-24T16:26:09.943Z,8.05
2022-11-24T16:28:36.796Z,7.45
2022-11-24T16:31:04.122Z,8.25
2022-11-24T16:33:31.536Z,7.50
2022-11-24T16:35:58.709Z,7.47
2022-11-24T16:38:25.575Z,7.93
2022-11-24T16:40:54.550Z,8.23
2022-11-24T16:43:21.557Z,8.45
2022-11-24T16:46:01.423Z,6.73
2022-11-24T16:48:28.204Z,7.53
2022-11-24T16:50:54.960Z,7.90
2022-11-24T16:53:22.644Z,7.82
2022-11-24T16:55:57.776Z,7.30
2022-11-24T16:58:24.812Z,7.57
2022-11-24T17:00:51.676Z,8.38
2022-11-24T17:03:19.819Z,7.53
2022-11-24T17:05:58.164Z,8.15
2022-11-24T17:08:25.925Z,7.62
2022-11-24T17:10:52.788Z,7.30
2022-11-24T17:13:20.072Z,6.75
2022-11-24T17:15:52.625Z,7.37
2022-11-24T17:18:25.589Z,7.60
2022-11-24T17:20:52.692Z,7.05
2022-11-24T17:23:19.973Z,6.63
2022-11-24T17:25:48.718Z,8.63
2022-11-24T17:28:15.834Z,7.82
2022-11-24T17:30:43.455Z,7.22
2022-11-24T17:33:10.725Z,7.43
2022-11-24T17:35:42.254Z,6.77
2022-11-24T17:38:09.380Z,7.32
2022-11-24T17:40:36.493Z,7.68
2022-11-24T17:43:03.595Z,7.25
2022-11-24T17:45:31.232Z,6.82
2022-11-24T17:48:01.216Z,6.33
2022-11-24T17:50:28.320Z,7.72
2022-11-24T17:52:55.952Z,7.53
2022-11-24T17:55:23.526Z,6.78
2022-11-24T17:57:50.840Z,6.62
2022-11-24T18:00:18.557Z,7.13
2022-11-24T18:05:13.799Z,7.28
2022-11-24T18:07:44.132Z,7.18
2022-11-24T18:12:52.954Z,7.23
2022-11-24T18:15:20.529Z,6.78
2022-11-24T18:17:47.612Z,7.40
2022-11-24T18:20:15.021Z,6.65
2022-11-24T18:23:04.544Z,6.55
2022-11-24T18:25:30.152Z,6.13
2022-11-24T18:28:01.626Z,6.25
2022-11-24T18:30:29.455Z,6.47
2022-11-24T18:32:58.804Z,6.78
2022-11-24T18:35:25.970Z,6.87
2022-11-24T18:37:53.826Z,7.33
2022-11-24T18:40:21.224Z,6.82
2022-11-24T18:42:48.170Z,6.95
2022-11-24T18:45:17.748Z,6.93
2022-11-24T18:47:45.320Z,6.57
2022-11-24T18:50:12.643Z,7.20
2022-11-24T18:52:39.971Z,6.90
2022-11-24T18:55:07.172Z,7.20
2022-11-24T18:57:35.460Z,7.37
2022-11-24T19:00:03.075Z,6.93
2022-11-24T19:02:34.876Z,7.73
2022-11-24T19:05:03.624Z,7.15
2022-11-24T19:07:34.874Z,7.12
2022-11-24T19:10:04.583Z,7.65
2022-11-24T19:12:32.322Z,7.20
2022-11-24T19:14:59.257Z,6.00
2022-11-24T19:17:26.598Z,7.10
2022-11-24T19:19:53.988Z,7.10
2022-11-24T19:22:21.352Z,7.35
2022-11-24T19:24:50.082Z,7.87
2022-11-24T19:27:18.891Z,7.13
2022-11-24T19:29:48.500Z,7.60
2022-11-24T19:32:16.957Z,6.32
2022-11-24T19:34:44.187Z,6.85
2022-11-24T19:37:11.449Z,6.53
2022-11-24T19:39:38.894Z,6.33
2022-11-24T19:42:06.750Z,6.35
2022-11-24T19:44:35.633Z,5.82
2022-11-24T19:47:02.752Z,6.53
2022-11-24T19:49:30.333Z,6.97
2022-11-24T19:51:57.710Z,7.20
2022-11-24T19:54:26.207Z,7.55
2022-11-24T19:56:54.408Z,7.78
2022-11-24T19:59:25.305Z,8.05
2022-11-24T20:01:53.352Z,6.93
2022-11-24T20:04:21.032Z,7.93
2022-11-24T20:06:48.624Z,7.70
2022-11-24T20:09:18.266Z,7.22
2022-11-24T20:11:46.599Z,6.97
2022-11-24T20:14:16.431Z,7.32
2022-11-24T20:16:45.840Z,8.53
2022-11-24T20:19:16.904Z,7.87
2022-11-24T20:21:48.106Z,8.38
2022-11-24T20:24:23.350Z,8.13
2022-11-24T20:26:56.755Z,8.18
2022-11-24T20:29:24.147Z,7.97
2022-11-24T20:31:54.834Z,8.45
2022-11-24T20:34:23.020Z,8.60
2022-11-24T20:36:53.227Z,7.78
2022-11-24T20:39:26.806Z,8.63
2022-11-24T20:41:54.626Z,8.17
2022-11-24T20:44:22.189Z,8.07
2022-11-24T20:46:49.924Z,9.90
2022-11-24T20:49:20.533Z,10.27
2022-11-24T20:51:48.139Z,8.98
2022-11-24T20:54:17.998Z,8.83
2022-11-24T20:56:46.807Z,8.45
2022-11-24T20:59:20.367Z,8.45
2022-11-24T21:01:49.421Z,9.15
2022-11-24T21:04:24.663Z,8.50
2022-11-24T21:06:51.858Z,7.87
2022-11-24T21:09:19.254Z,8.27
2022-11-24T21:11:46.731Z,8.60
2022-11-24T21:14:14.039Z,8.50
2022-11-24T21:16:42.719Z,8.65
2022-11-24T21:19:13.013Z,7.87
2022-11-24T21:21:42.697Z,8.77
2022-11-24T21:24:14.748Z,9.07
2022-11-24T21:26:42.797Z,9.25
2022-11-24T21:29:13.126Z,9.10
2022-11-24T21:31:40.611Z,8.73
2022-11-24T21:34:08.958Z,8.45
2022-11-24T21:36:36.200Z,9.45
2022-11-24T21:39:04.304Z,8.52
2022-11-24T21:41:33.572Z,9.90
2022-11-24T21:44:00.652Z,9.33
2022-11-24T21:46:29.753Z,9.10
2022-11-24T21:48:56.549Z,8.68
2022-11-24T21:51:23.553Z,9.88
2022-11-24T21:53:50.393Z,8.68
2022-11-24T21:56:22.514Z,8.63
2022-11-24T21:58:55.177Z,8.88
2022-11-24T22:01:25.281Z,8.27
2022-11-24T22:03:52.224Z,9.30
2022-11-24T22:06:20.247Z,9.00
2022-11-24T22:08:48.314Z,10.13
2022-11-24T22:11:20.573Z,10.48
2022-11-24T22:13:48.177Z,9.95
2022-11-24T22:16:18.160Z,9.35
2022-11-24T22:18:45.817Z,9.82
2022-11-24T22:21:18.534Z,10.17
2022-11-24T22:23:45.636Z,9.13
2022-11-24T22:26:18.084Z,10.63
2022-11-24T22:28:45.832Z,10.30
2022-11-24T22:31:24.142Z,9.80
2022-11-24T22:33:52.212Z,10.43
2022-11-24T22:36:20.967Z,9.40
2022-11-24T22:38:52.632Z,9.35
2022-11-24T22:41:19.717Z,10.05
2022-11-24T22:43:46.650Z,10.57
2022-11-24T22:46:16.868Z,10.67
2022-11-24T22:48:46.164Z,9.88
2022-11-24T22:51:18.590Z,10.52
2022-11-24T22:53:50.121Z,10.60
2022-11-24T22:56:17.615Z,10.25
2022-11-24T22:58:44.501Z,10.33
2022-11-24T23:01:23.230Z,10.68
2022-11-24T23:03:53.683Z,9.20
2022-11-24T23:06:23.266Z,10.35
2022-11-24T23:08:50.760Z,10.02
2022-11-24T23:11:22.235Z,8.17
2022-11-24T23:13:56.497Z,9.48
2022-11-24T23:16:23.893Z,8.57
2022-11-24T23:18:54.028Z,8.32
2022-11-24T23:21:23.950Z,10.02
2022-11-24T23:23:50.892Z,9.17
2022-11-24T23:26:20.507Z,9.50
2022-11-24T23:28:48.112Z,10.13
2022-11-24T23:31:18.111Z,10.48
2022-11-24T23:33:45.434Z,6.65
2022-11-24T23:36:18.694Z,9.80
2022-11-24T23:38:46.115Z,9.52
2022-11-24T23:41:21.625Z,10.32
2022-11-24T23:43:49.058Z,12.05
2022-11-24T23:46:21.339Z,9.70
2022-11-24T23:48:49.505Z,11.43
2022-11-24T23:51:18.711Z,10.05
2022-11-24T23:53:46.496Z,10.13
2022-11-24T23:56:16.068Z,10.43
2022-11-24T23:58:43.227Z,10.88
